createdAt,value
2018-10-07T00:00:35.224Z,13.10
2018-10-07T00:05:39.923Z,13.10
2018-10-07T00:10:44.570Z,13.00
2018-10-07T00:15:49.079Z,13.00
2018-10-07T00:20:53.541Z,13.10
2018-10-07T00:25:58.381Z,13.10
2018-10-07T00:31:03.162Z,13.20
2018-10-07T00:36:08.737Z,13.10
2018-10-07T00:41:13.310Z,13.10
2018-10-07T00:46:18.541Z,13.00
2018-10-07T00:51:23.003Z,13.00
2018-10-07T00:56:27.829Z,13.00
2018-10-07T01:01:39.037Z,12.90
2018-10-07T01:06:43.610Z,13.00
2018-10-07T01:11:48.201Z,13.10
2018-10-07T01:16:53.119Z,13.10
2018-10-07T01:21:57.690Z,13.10
2018-10-07T01:27:01.998Z,13.00
2018-10-07T01:32:06.791Z,13.00
2018-10-07T01:37:11.870Z,13.00
2018-10-07T01:42:17.573Z,13.00
2018-10-07T01:47:22.552Z,13.00
2018-10-07T01:52:27.045Z,12.90
2018-10-07T01:57:31.543Z,12.90
2018-10-07T02:02:36.117Z,12.90
2018-10-07T02:07:42.043Z,12.90
2018-10-07T02:12:46.628Z,12.90
2018-10-07T02:17:51.604Z,13.00
2018-10-07T02:22:56.610Z,13.00
2018-10-07T02:28:00.936Z,13.10
2018-10-07T02:33:05.481Z,13.00
2018-10-07T02:38:10.642Z,13.00
2018-10-07T02:43:15.328Z,13.10
2018-10-07T02:48:19.817Z,13.00
2018-10-07T02:53:24.605Z,13.00
2018-10-07T02:58:29.487Z,12.90
2018-10-07T03:03:34.039Z,13.00
2018-10-07T03:08:38.484Z,13.00
2018-10-07T03:13:43.500Z,13.00
2018-10-07T03:18:47.946Z,13.00
2018-10-07T03:23:53.011Z,12.90
2018-10-07T03:28:57.812Z,12.90
2018-10-07T03:34:02.366Z,13.00
2018-10-07T03:39:08.289Z,13.00
2018-10-07T03:44:13.551Z,12.90
2018-10-07T03:49:18.195Z,12.90
2018-10-07T03:54:22.642Z,12.80
2018-10-07T03:59:27.043Z,12.80
2018-10-07T04:04:31.464Z,12.70
2018-10-07T04:09:35.920Z,12.60
2018-10-07T04:14:40.467Z,12.50
2018-10-07T04:19:45.314Z,12.50
2018-10-07T04:24:50.599Z,12.50
2018-10-07T04:29:55.904Z,12.50
2018-10-07T04:35:00.382Z,12.50
2018-10-07T04:40:05.008Z,12.60
2018-10-07T04:45:10.464Z,12.80
2018-10-07T04:50:15.835Z,12.80
2018-10-07T04:55:20.334Z,12.80
2018-10-07T05:00:25.858Z,12.70
2018-10-07T05:05:30.898Z,12.70
2018-10-07T05:10:51.595Z,12.60
2018-10-07T05:16:00.383Z,12.60
2018-10-07T05:21:05.014Z,12.40
2018-10-07T05:26:09.577Z,12.40
2018-10-07T05:31:14.685Z,12.40
2018-10-07T05:36:19.453Z,12.30
2018-10-07T05:41:24.065Z,12.30
2018-10-07T05:46:28.563Z,12.30
2018-10-07T05:51:33.148Z,12.20
2018-10-07T05:56:38.187Z,12.20
2018-10-07T06:01:44.432Z,12.30
2018-10-07T06:06:49.018Z,12.50
2018-10-07T06:11:53.890Z,12.60
2018-10-07T06:16:59.137Z,12.70
2018-10-07T06:22:04.812Z,12.80
2018-10-07T06:27:10.018Z,12.90
2018-10-07T06:32:14.848Z,12.80
2018-10-07T06:37:20.250Z,13.00
2018-10-07T06:42:25.423Z,13.10
2018-10-07T06:47:35.289Z,13.10
2018-10-07T06:52:40.381Z,13.20
2018-10-07T06:57:46.603Z,13.30
2018-10-07T07:02:51.345Z,13.60
2018-10-07T07:07:56.448Z,13.90
2018-10-07T07:13:01.735Z,14.10
2018-10-07T07:18:07.118Z,14.20
2018-10-07T07:23:14.531Z,14.40
2018-10-07T07:28:22.527Z,14.40
2018-10-07T07:33:27.234Z,14.40
2018-10-07T07:38:31.745Z,14.40
2018-10-07T07:43:37.808Z,14.90
2018-10-07T07:48:44.384Z,15.30
2018-10-07T07:53:50.010Z,15.40
2018-10-07T07:58:55.192Z,15.50
2018-10-07T08:04:00.545Z,15.50
2018-10-07T08:09:13.618Z,15.50
2018-10-07T08:14:18.980Z,15.60
2018-10-07T08:19:24.313Z,15.80
2018-10-07T08:24:29.672Z,15.90
2018-10-07T08:29:35.951Z,15.90
2018-10-07T08:34:44.208Z,16.00
2018-10-07T08:39:50.002Z,16.30
2018-10-07T08:45:00.759Z,16.40
2018-10-07T08:50:08.317Z,16.50
2018-10-07T08:55:18.368Z,16.90
2018-10-07T09:00:27.678Z,17.20
2018-10-07T09:05:33.833Z,17.30
2018-10-07T09:10:39.466Z,17.40
2018-10-07T09:15:44.776Z,17.70
2018-10-07T09:20:49.427Z,18.10
2018-10-07T09:25:54.117Z,18.40
2018-10-07T09:36:27.640Z,18.60
2018-10-07T09:41:32.295Z,18.70
2018-10-07T09:46:37.029Z,18.60
2018-10-07T09:51:42.131Z,18.70
2018-10-07T09:56:46.872Z,19.10
2018-10-07T10:01:52.202Z,19.30
2018-10-07T10:06:57.406Z,19.50
2018-10-07T10:12:03.026Z,19.80
2018-10-07T10:17:10.272Z,20.00
2018-10-07T10:23:23.591Z,20.00
2018-10-07T10:29:06.799Z,20.30
2018-10-07T10:34:15.304Z,20.70
2018-10-07T10:39:28.270Z,20.30
2018-10-07T10:44:41.775Z,20.70
2018-10-07T10:51:29.751Z,21.70
2018-10-07T10:56:42.094Z,22.10
2018-10-07T11:01:53.992Z,25.00
2018-10-07T11:07:11.001Z,25.70
2018-10-07T11:12:28.427Z,25.80
2018-10-07T11:17:41.250Z,25.20
2018-10-07T11:22:53.838Z,25.70
2018-10-07T11:33:41.504Z,26.50
2018-10-07T11:39:28.930Z,26.40
2018-10-07T11:45:46.964Z,25.50
2018-10-07T11:51:01.046Z,26.60
2018-10-07T11:56:05.654Z,28.10
2018-10-07T12:01:10.268Z,28.90
2018-10-07T12:06:14.615Z,28.10
2018-10-07T12:11:19.107Z,26.60
2018-10-07T12:16:23.748Z,26.30
2018-10-07T12:21:28.391Z,26.10
2018-10-07T12:26:32.805Z,26.10
2018-10-07T12:31:37.250Z,27.30
2018-10-07T12:36:41.891Z,26.50
2018-10-07T12:41:47.011Z,24.80
2018-10-07T12:46:51.498Z,23.40
2018-10-07T12:51:59.197Z,22.80
2018-10-07T12:57:07.813Z,22.40
2018-10-07T13:02:13.996Z,22.00
2018-10-07T13:07:24.522Z,22.10
2018-10-07T13:12:33.163Z,21.60
2018-10-07T13:17:39.051Z,22.00
2018-10-07T13:22:45.129Z,22.00
2018-10-07T13:27:49.927Z,22.20
2018-10-07T13:32:54.465Z,22.40
2018-10-07T13:38:00.119Z,22.10
2018-10-07T13:43:05.335Z,22.20
2018-10-07T13:48:13.466Z,22.40
2018-10-07T13:53:18.892Z,22.80
2018-10-07T13:58:24.050Z,22.80
2018-10-07T14:03:29.536Z,23.10
2018-10-07T14:08:36.785Z,23.20
2018-10-07T14:13:41.366Z,22.90
2018-10-07T14:18:53.355Z,22.80
2018-10-07T14:24:12.059Z,23.20
2018-10-07T14:29:17.710Z,23.30
2018-10-07T14:34:23.887Z,23.20
2018-10-07T14:39:28.955Z,23.10
2018-10-07T14:44:33.925Z,22.40
2018-10-07T14:49:39.137Z,21.80
2018-10-07T14:54:44.923Z,21.90
2018-10-07T14:59:49.474Z,22.90
2018-10-07T15:04:54.451Z,23.20
2018-10-07T15:10:00.220Z,22.50
2018-10-07T15:15:05.206Z,21.50
2018-10-07T15:20:09.873Z,20.90
2018-10-07T15:25:16.885Z,20.80
2018-10-07T15:30:21.496Z,20.60
2018-10-07T15:35:25.953Z,20.60
2018-10-07T15:40:31.472Z,20.50
2018-10-07T15:45:36.783Z,20.40
2018-10-07T15:50:41.631Z,20.30
2018-10-07T15:55:46.825Z,20.20
2018-10-07T16:00:51.608Z,20.00
2018-10-07T16:05:56.385Z,20.00
2018-10-07T16:11:01.481Z,19.80
2018-10-07T16:16:06.480Z,19.70
2018-10-07T16:21:11.335Z,19.60
2018-10-07T16:26:16.299Z,19.50
2018-10-07T16:31:22.586Z,19.30
2018-10-07T16:36:27.350Z,19.20
2018-10-07T16:41:32.670Z,19.00
2018-10-07T16:46:38.012Z,18.80
2018-10-07T16:51:42.993Z,18.50
2018-10-07T16:56:47.627Z,18.30
2018-10-07T17:01:52.901Z,18.10
2018-10-07T17:06:58.493Z,17.90
2018-10-07T17:12:02.950Z,17.80
2018-10-07T17:17:07.694Z,17.70
2018-10-07T17:22:12.586Z,17.60
2018-10-07T17:27:17.239Z,17.30
2018-10-07T17:32:22.265Z,17.00
2018-10-07T17:37:27.461Z,16.80
2018-10-07T17:42:33.056Z,16.70
2018-10-07T17:47:38.352Z,16.60
2018-10-07T17:52:43.036Z,16.50
2018-10-07T17:57:47.867Z,16.50
2018-10-07T18:02:52.476Z,16.50
2018-10-07T18:07:57.880Z,16.60
2018-10-07T18:13:02.617Z,16.60
2018-10-07T18:18:08.220Z,16.60
2018-10-07T18:23:13.516Z,16.70
2018-10-07T18:28:18.595Z,16.70
2018-10-07T18:33:23.324Z,16.80
2018-10-07T18:38:28.163Z,16.80
2018-10-07T18:43:33.304Z,16.80
2018-10-07T18:48:38.216Z,16.80
2018-10-07T18:53:42.813Z,16.60
2018-10-07T18:58:48.205Z,16.30
2018-10-07T19:03:52.888Z,15.80
2018-10-07T19:08:58.205Z,15.40
2018-10-07T19:14:03.066Z,15.20
2018-10-07T19:19:08.900Z,15.00
2018-10-07T19:24:14.091Z,14.80
2018-10-07T19:29:18.724Z,14.70
2018-10-07T19:34:23.492Z,14.60
2018-10-07T19:39:28.014Z,14.80
2018-10-07T19:44:32.765Z,14.70
2018-10-07T19:49:37.521Z,14.50
2018-10-07T19:54:43.450Z,14.40
2018-10-07T19:59:48.271Z,14.30
2018-10-07T20:04:53.034Z,14.30
2018-10-07T20:09:58.052Z,14.20
2018-10-07T20:15:02.746Z,14.30
2018-10-07T20:20:07.582Z,14.40
2018-10-07T20:25:13.028Z,14.30
2018-10-07T20:30:18.500Z,14.30
2018-10-07T20:35:23.726Z,14.20
2018-10-07T20:40:28.294Z,14.20
2018-10-07T20:45:32.765Z,14.20
2018-10-07T20:50:37.782Z,14.20
2018-10-07T20:55:42.544Z,14.00
2018-10-07T21:01:06.405Z,13.90
2018-10-07T21:06:20.909Z,13.80
2018-10-07T21:17:16.606Z,14.00
2018-10-07T21:22:31.718Z,14.20
2018-10-07T21:27:48.505Z,14.20
2018-10-07T21:32:58.014Z,14.10
2018-10-07T21:38:03.984Z,14.00
2018-10-07T21:43:11.358Z,13.90
2018-10-07T21:48:16.217Z,13.70
2018-10-07T21:53:24.414Z,13.60
2018-10-07T21:58:31.980Z,13.50
2018-10-07T22:03:38.983Z,13.60
2018-10-07T22:08:50.733Z,13.50
2018-10-07T22:14:00.344Z,13.50
2018-10-07T22:19:09.512Z,13.30
2018-10-07T22:24:46.515Z,13.30
2018-10-07T22:29:57.958Z,13.20
2018-10-07T22:35:02.875Z,13.10
2018-10-07T22:40:07.375Z,13.10
2018-10-07T22:45:12.939Z,13.00
2018-10-07T22:50:17.598Z,12.90
2018-10-07T22:55:22.128Z,12.90
2018-10-07T23:00:27.621Z,12.80
2018-10-07T23:05:31.984Z,12.70
2018-10-07T23:10:36.372Z,12.80
2018-10-07T23:15:40.769Z,13.30
2018-10-07T23:20:45.426Z,13.20
2018-10-07T23:25:50.456Z,12.70
2018-10-07T23:30:54.860Z,12.80
2018-10-07T23:35:59.986Z,12.90
2018-10-07T23:41:04.627Z,13.30
2018-10-07T23:46:09.176Z,12.90
2018-10-07T23:51:13.608Z,12.80
2018-10-07T23:56:18.168Z,12.80
